• Join FlightAware (Why Join?)
  • Login
  • US Flag 
05:05AM EST


 

Airport Tracker/Info


-or-


 

Live Flight TrackerFlight Track Log ✈ ASQ4253 ✈ 03-Oct-2013 ✈ KCAE - KIAH

Flight Track Log - Related Links

Times and Time Zones

All times are in EDT time to prevent confusion due to time zone crossing. See the ASQ4253 flight status page for this flight to view local times or setup timezone preferences in your user account.

Time Position Orientation Groundspeed Altitude Reporting Facility
EDT Latitude Longitude Course Direction KTS MPH feet Rate Location/Type
05:40PM 33.8253 -81.0625 175° South 216 249 5,300  Level Jacksonville Center
05:41PM 33.7606 -81.0639 181° South 242 278 7,000 1,680 Climbing Jacksonville Center
05:42PM 33.7261 -81.1297 238° Southwest 235 270 8,700 1,500 Climbing Jacksonville Center
05:43PM 33.6939 -81.2125 245° Southwest 255 293 10,100 1,200 Climbing Jacksonville Center
05:44PM 33.6553 -81.3081 244° Southwest 290 334 11,100 1,020 Climbing Jacksonville Center
05:45PM 33.6147 -81.4086 244° Southwest 321 369 12,200 1,080 Climbing Jacksonville Center
05:47PM 33.5322 -81.6067 243° Southwest 351 404 14,300 1,080 Climbing Atlanta Center
05:48PM 33.4925 -81.7097 245° Southwest 356 410 15,400 960 Climbing Atlanta Center
05:49PM 33.4506 -81.8206 246° West 356 410 16,300 780 Climbing Atlanta Center
05:50PM 33.4044 -81.9261 242° Southwest 356 410 17,000 300 Climbing Atlanta Center
05:51PM 33.3583 -82.0417 244° Southwest 368 423 17,000 360 Level Atlanta Center
05:52PM 33.3103 -82.1547 243° Southwest 373 429 17,800 1,020 Climbing Atlanta Center
05:53PM 33.2681 -82.2650 245° Southwest 373 429 19,100 1,200 Climbing Atlanta Center
05:54PM 33.2214 -82.3725 243° Southwest 373 429 20,200 1,140 Climbing Atlanta Center
05:55PM 33.1769 -82.4803 244° Southwest 368 423 21,400 1,080 Climbing Atlanta Center
05:56PM 33.1322 -82.5878 244° Southwest 368 423 22,400 1,020 Climbing Atlanta Center
05:57PM 33.0897 -82.6950 245° Southwest 368 423 23,500 1,020 Climbing Atlanta Center
05:58PM 33.0450 -82.7997 243° Southwest 368 423 24,500 1,020 Climbing Atlanta Center
05:59PM 33.0000 -82.9069 243° Southwest 368 423 25,600 1,020 Climbing Atlanta Center
06:00PM 32.9572 -83.0114 244° Southwest 368 423 26,600 960 Climbing Atlanta Center
06:01PM 32.9142 -83.1158 244° Southwest 363 418 27,600 1,140 Climbing Atlanta Center
06:02PM 32.8647 -83.2300 243° Southwest 363 418 28,900 1,140 Climbing Atlanta Center
06:03PM 32.8217 -83.3392 245° Southwest 363 418 29,900 960 Climbing Atlanta Center
06:04PM 32.7806 -83.4433 245° Southwest 358 412 30,900 1,020 Climbing Atlanta Center
06:05PM 32.7350 -83.5450 242° Southwest 358 412 32,000 1,080 Climbing Atlanta Center
06:06PM 32.6914 -83.6489 244° Southwest 358 412 33,100 1,080 Climbing Atlanta Center
06:07PM 32.6708 -83.7625 258° West 353 406 34,200 1,080 Climbing Atlanta Center
06:08PM 32.6544 -83.8686 260° West 348 400 35,300 900 Climbing Atlanta Center
06:09PM 32.6378 -83.9772 260° West 337 388 36,000 300 Climbing Atlanta Center
06:10PM 32.6192 -84.0881 259° West 337 388 36,000  Level Atlanta Center
06:11PM 32.5981 -84.2042 258° West 345 397 36,000  Level Atlanta Center
06:12PM 32.5769 -84.3297 259° West 367 422 36,000  Level Atlanta Center
06:13PM 32.5558 -84.4553 259° West 389 448 36,000  Level Atlanta Center
06:14PM 32.5344 -84.5833 259° West 394 453 36,000  Level Atlanta Center
06:15PM 32.5131 -84.7064 258° West 394 453 36,000  Level Atlanta Center
06:16PM 32.4892 -84.8317 257° West 394 453 36,000  Level Atlanta Center
06:17PM 32.4675 -84.9497 258° West 387 445 36,000  Level Atlanta Center
06:18PM 32.4456 -85.0800 259° West 393 452 36,000  Level Atlanta Center
06:19PM 32.4258 -85.2053 259° West 398 458 36,000  Level Atlanta Center
06:20PM 32.4036 -85.3328 258° West 398 458 36,000  Level Atlanta Center
06:21PM 32.3792 -85.4628 257° West 398 458 36,000  Level Atlanta Center
06:22PM 32.3547 -85.5928 257° West 403 464 36,000  Level Atlanta Center
06:23PM 32.3319 -85.7253 259° West 409 471 36,000  Level Atlanta Center
06:24PM 32.3050 -85.8597 257° West 416 479 36,000  Level Atlanta Center
06:25PM 32.2761 -85.9869 255° West 416 479 36,000  Level Atlanta Center
06:26PM 32.2183 -86.0742 232° Southwest 411 473 36,000  Level Atlanta Center
06:27PM 32.1469 -86.2097 238° Southwest 411 473 36,000  Level Atlanta Center
06:28PM 32.0636 -86.3181 228° Southwest 427 491 36,000  Level Atlanta Center
06:29PM 32.0033 -86.4242 236° Southwest 427 491 36,000  Level Atlanta Center
06:30PM 31.9303 -86.5300 231° Southwest 420 483 36,000  Level Atlanta Center
06:31PM 31.8633 -86.6333 233° Southwest 420 483 36,000  Level Atlanta Center
06:32PM 31.8031 -86.7244 232° Southwest 409 471 36,000  Level Atlanta Center
06:33PM 31.7294 -86.8419 234° Southwest 404 465 36,000  Level Atlanta Center
06:34PM 31.6625 -86.9447 233° Southwest 404 465 36,000  Level Atlanta Center
06:35PM 31.6017 -87.0428 234° Southwest 404 465 36,000  Level Atlanta Center
06:36PM 31.5386 -87.1406 233° Southwest 393 452 36,000  Level Atlanta Center
06:36PM 31.4997 -87.1919 228° Southwest 381 438 36,000  Level Houston Center
06:38PM 31.4344 -87.2911 232° Southwest 384 442 36,000  Level Houston Center
06:39PM 31.3678 -87.3931 233° Southwest 392 451 36,000  Level Houston Center
06:40PM 31.2869 -87.5164 233° Southwest 396 456 36,000  Level Houston Center
06:41PM 31.2258 -87.6250 237° Southwest 399 459 36,000  Level Houston Center
06:42PM 31.1831 -87.7528 249° West 405 466 36,000  Level Houston Center
06:43PM 31.1411 -87.8736 248° West 403 464 36,000  Level Houston Center
06:44PM 31.0997 -87.9936 248° West 399 459 36,000  Level Houston Center
06:45PM 31.0578 -88.1131 248° West 398 458 36,000  Level Houston Center
06:46PM 31.0144 -88.2333 247° West 402 463 36,000  Level Houston Center
06:47PM 30.9631 -88.3783 248° West 405 466 36,000 -60 Level Houston Center
06:48PM 30.9194 -88.5053 248° West 419 482 35,900  Descending Houston Center
06:49PM 30.8728 -88.6400 248° West 420 483 36,000  Climbing Houston Center
06:50PM 30.8281 -88.7653 247° West 421 484 36,000  Level Houston Center
06:51PM 30.7833 -88.8931 248° West 426 490 36,000  Level Houston Center
06:52PM 30.7411 -89.0117 248° West 427 491 36,000  Level Houston Center
06:53PM 30.6872 -89.1647 248° West 428 493 36,000  Level Houston Center
06:54PM 30.6422 -89.2928 248° West 429 494 36,000  Level Houston Center
06:55PM 30.5975 -89.4197 248° West 427 491 36,000 -60 Level Houston Center
06:56PM 30.5519 -89.5467 247° West 427 491 35,900  Descending Houston Center
06:57PM 30.5061 -89.6742 247° West 431 496 36,000  Climbing Houston Center
06:58PM 30.4522 -89.8122 246° West 436 502 36,000  Level Houston Center
06:59PM 30.4061 -89.9531 249° West 465 535 36,000  Level Houston Center
07:00PM 30.3583 -90.0792 246° West 440 506 36,000  Level Houston Center
07:01PM 30.3106 -90.2072 247° West 451 519 36,000  Level Houston Center
07:02PM 30.2536 -90.3614 247° West 441 507 36,000  Level Houston Center
07:03PM 30.2075 -90.4867 247° West 428 493 36,000  Level Houston Center
07:04PM 30.1597 -90.6111 246° West 425 489 36,000  Level Houston Center
07:05PM 30.1136 -90.7372 247° West 428 493 36,000  Level Houston Center
07:06PM 30.0661 -90.8647 247° West 432 497 36,000  Level Houston Center
07:07PM 30.0178 -90.9914 246° West 433 498 36,000  Level Houston Center
07:08PM 29.9603 -91.1439 247° West 432 497 36,000  Level Houston Center
07:10PM 29.9128 -91.2686 246° West 428 493 36,000  Level Houston Center
07:11PM 29.8664 -91.3939 247° West 424 488 36,000  Level Houston Center
07:12PM 29.8189 -91.5175 246° West 424 488 36,000  Level Houston Center
07:13PM 29.7703 -91.6444 246° West 431 496 36,000  Level Houston Center
07:14PM 29.7200 -91.7753 246° West 436 502 36,000  Level Houston Center
07:15PM 29.6719 -91.9014 246° West 432 497 36,000  Level Houston Center
07:16PM 29.6147 -92.0503 246° West 426 490 36,000  Level Houston Center
07:17PM 29.5672 -92.1742 246° West 424 488 36,000  Level Houston Center
07:18PM 29.5181 -92.2983 246° West 426 490 36,000  Level Houston Center
07:19PM 29.4697 -92.4253 246° West 432 497 36,000 -60 Level Houston Center
07:20PM 29.4614 -92.5622 266° West 431 496 35,900  Descending Houston Center
07:21PM 29.4678 -92.7017 273° West 436 502 36,000  Climbing Houston Center
07:22PM 29.4739 -92.8419 273° West 439 505 36,000 -300 Level Houston Center
07:23PM 29.4819 -93.0131 273° West 446 513 35,500 -1,080 Descending Houston Center
07:24PM 29.4875 -93.1533 273° West 442 509 33,800 -1,860 Descending Houston Center
07:25PM 29.4939 -93.2967 273° West 447 514 31,700 -2,280 Descending Houston Center
07:26PM 29.4997 -93.4425 273° West 454 522 29,100 -2,640 Descending Houston Center
07:27PM 29.5058 -93.5875 273° West 455 524 26,300 -2,820 Descending Houston Center
07:28PM 29.5103 -93.7333 272° West 450 518 23,300 -2,760 Descending Houston Center
07:29PM 29.5164 -93.8717 273° West 447 514 20,600 -2,760 Descending Houston Center
07:30PM 29.5222 -94.0322 272° West 430 495 17,600 -2,760 Descending Houston Center
07:31PM 29.5264 -94.1394 273° West 403 464 15,600 -2,460 Descending Houston Center
07:31PM 29.5256 -94.1539 266° West 404 465 15,400 -1,860 Descending Houston Center
07:31PM 29.5267 -94.1608 280° West 413 475 15,200 -2,220 Descending Houston Center
07:32PM 29.5300 -94.2808 272° West 388 447 13,200 -2,040 Descending Houston Center
07:32PM 29.5308 -94.2828 296° West 395 455 13,100 -420 Descending Houston Center
07:33PM 29.5511 -94.3861 283° West 343 395 12,800 -420 Descending Houston Center
07:33PM 29.5522 -94.3892 293° West 354 407 12,700 -1,140 Descending Houston Center
07:34PM 29.5925 -94.4867 295° West 343 395 11,700 -1,020 Descending Houston Center
07:34PM 29.5939 -94.4867 360° North 344 396 11,700 -1,020 Level Houston Center
07:35PM 29.6358 -94.5869 296° West 338 389 10,700 -1,020 Descending Houston Center
07:35PM 29.6356 -94.5844 97° East 342 394 10,700 -1,020 Level Houston Center
07:36PM 29.6739 -94.6758 296° West 289 333 9,700 -1,200 Descending Houston Center
07:36PM 29.6814 -94.6903 301° West 309 356 9,500 -1,320 Descending Houston Center
07:37PM 29.7097 -94.7628 294° West 293 337 8,400 -1,260 Descending Houston Center
07:37PM 29.7164 -94.7717 311° West 290 334 8,200 -1,080 Descending Houston Center
07:38PM 29.7514 -94.8550 296° West 291 335 7,100 -1,200 Descending Houston Center
07:39PM 29.7803 -94.9297 294° West 282 325 6,100 -1,020 Descending Houston Center
07:39PM 29.7850 -94.9353 314° West 284 327 6,100  Level Houston Center
07:40PM 29.8153 -95.0097 295° West 275 316 6,100 -120 Level Houston Center
07:40PM 29.8181 -95.0139 308° West 278 320 6,000 -120 Descending Houston Center
07:41PM 29.8503 -95.0919 295° West 282 325 6,000  Level Houston Center
07:42PM 29.8589 -95.1100 299° West 281 323 6,000 60 Level Houston Center
07:42PM 29.8828 -95.1722 294° West 280 322 6,100  Climbing Houston Center
07:43PM 29.8922 -95.1903 301° West 281 323 6,000  Descending Houston Center
07:43PM 29.8997 -95.2619 277° West 273 314 6,100  Climbing Houston Center
07:44PM 29.8997 -95.2772 270° West 279 321 6,000 -120 Descending Houston Center
07:44PM 29.8992 -95.3486 270° West 277 319 6,000  Level Houston Center
07:45PM 29.9003 -95.3647 275° West 277 319 6,000  Level Houston Center
07:45PM 29.9006 -95.4328 270° West 249 287 6,000  Level Houston Center
07:46PM 29.9014 -95.4467 274° West 260 299 6,000 -120 Level Houston Center
07:46PM 29.8997 -95.5150 268° West 234 269 5,900 -420 Descending Houston Center
07:47PM 29.9006 -95.5364 273° West 239 275 5,600 -1,320 Descending Houston Center
07:47PM 29.9022 -95.5894 272° West 235 270 4,600 -1,260 Descending Houston Center
07:48PM 29.9131 -95.6083 303° West 237 273 4,300 -1,200 Descending Houston Center
07:48PM 29.9583 -95.6067 North 240 276 3,400 -1,200 Descending Houston Center
07:49PM 29.9711 -95.5919 45° Northeast 234 269 3,100 -300 Descending Houston Center
07:49PM 29.9906 -95.5450 64° Northeast 231 266 3,100 -240 Level Houston Center
07:50PM 29.9933 -95.5253 81° East 229 264 2,900 -1,020 Descending Houston Center
07:50PM 29.9928 -95.4772 91° East 184 212 2,100 -900 Descending Houston Center
07:51PM 29.9933 -95.4653 87° East 203 234 2,000 -720 Descending Houston Center
07:51PM 29.9925 -95.4292 92° East 133 153 1,400 -780 Descending Houston Center
07:52PM 29.9936 -95.4183 83° East 175 201 1,200 -720 Descending Houston Center
07:52PM 29.9931 -95.3881 91° East 131 151 700 -720 Descending Houston Center
07:53PM 29.9939 -95.3778 85° East 146 168 500 -540 Descending Houston Center